sensor_id;sensor_type;location;lat;lon;timestamp;temperature;humidity
15426;DHT22;7812;50.072;7.036;2022-07-01T00:01:38;14.20;99.90
15426;DHT22;7812;50.072;7.036;2022-07-01T00:04:05;14.20;99.90
15426;DHT22;7812;50.072;7.036;2022-07-01T00:06:31;14.30;99.90
15426;DHT22;7812;50.072;7.036;2022-07-01T00:08:57;14.40;99.90
15426;DHT22;7812;50.072;7.036;2022-07-01T00:11:23;14.40;99.90
15426;DHT22;7812;50.072;7.036;2022-07-01T00:13:49;14.50;99.90
15426;DHT22;7812;50.072;7.036;2022-07-01T00:16:15;14.50;99.90
15426;DHT22;7812;50.072;7.036;2022-07-01T00:18:40;14.50;99.90
15426;DHT22;7812;50.072;7.036;2022-07-01T00:21:06;14.40;99.90
15426;DHT22;7812;50.072;7.036;2022-07-01T00:23:32;14.30;99.90
15426;DHT22;7812;50.072;7.036;2022-07-01T00:25:58;14.20;99.90
15426;DHT22;7812;50.072;7.036;2022-07-01T00:28:24;14.20;99.90
15426;DHT22;7812;50.072;7.036;2022-07-01T00:30:50;14.30;99.90
15426;DHT22;7812;50.072;7.036;2022-07-01T00:33:16;14.20;99.90
15426;DHT22;7812;50.072;7.036;2022-07-01T00:35:41;14.10;99.90
15426;DHT22;7812;50.072;7.036;2022-07-01T00:38:07;14.00;99.90
15426;DHT22;7812;50.072;7.036;2022-07-01T00:40:33;14.00;99.90
15426;DHT22;7812;50.072;7.036;2022-07-01T00:42:58;13.90;99.90
15426;DHT22;7812;50.072;7.036;2022-07-01T00:45:24;14.00;99.90
15426;DHT22;7812;50.072;7.036;2022-07-01T00:47:50;13.90;99.90
15426;DHT22;7812;50.072;7.036;2022-07-01T00:50:16;13.90;99.90
15426;DHT22;7812;50.072;7.036;2022-07-01T00:52:44;13.90;99.90
15426;DHT22;7812;50.072;7.036;2022-07-01T00:55:14;13.80;99.90
15426;DHT22;7812;50.072;7.036;2022-07-01T00:57:41;13.80;99.90
15426;DHT22;7812;50.072;7.036;2022-07-01T01:00:13;13.80;99.90
15426;DHT22;7812;50.072;7.036;2022-07-01T01:02:40;13.90;99.90
15426;DHT22;7812;50.072;7.036;2022-07-01T01:05:07;14.00;99.90
15426;DHT22;7812;50.072;7.036;2022-07-01T01:07:34;14.00;99.90
15426;DHT22;7812;50.072;7.036;2022-07-01T01:10:00;14.00;99.90
15426;DHT22;7812;50.072;7.036;2022-07-01T01:12:28;14.00;99.90
15426;DHT22;7812;50.072;7.036;2022-07-01T01:14:54;14.00;99.90
15426;DHT22;7812;50.072;7.036;2022-07-01T01:17:21;14.00;99.90
15426;DHT22;7812;50.072;7.036;2022-07-01T01:19:50;14.00;99.90
15426;DHT22;7812;50.072;7.036;2022-07-01T01:22:18;14.00;99.90
15426;DHT22;7812;50.072;7.036;2022-07-01T01:24:45;14.10;99.90
15426;DHT22;7812;50.072;7.036;2022-07-01T01:27:13;14.20;99.90
15426;DHT22;7812;50.072;7.036;2022-07-01T01:29:39;14.20;99.90
15426;DHT22;7812;50.072;7.036;2022-07-01T01:32:06;14.30;99.90
15426;DHT22;7812;50.072;7.036;2022-07-01T01:34:36;14.30;99.90
15426;DHT22;7812;50.072;7.036;2022-07-01T01:37:08;14.10;99.90
15426;DHT22;7812;50.072;7.036;2022-07-01T01:39:35;14.10;99.90
15426;DHT22;7812;50.072;7.036;2022-07-01T01:42:04;14.10;99.90
15426;DHT22;7812;50.072;7.036;2022-07-01T01:44:31;14.10;99.90
15426;DHT22;7812;50.072;7.036;2022-07-01T01:46:57;14.10;99.90
15426;DHT22;7812;50.072;7.036;2022-07-01T01:49:24;14.00;99.90
15426;DHT22;7812;50.072;7.036;2022-07-01T01:51:50;13.80;99.90
15426;DHT22;7812;50.072;7.036;2022-07-01T01:54:15;13.80;99.90
15426;DHT22;7812;50.072;7.036;2022-07-01T01:56:41;13.90;99.90
15426;DHT22;7812;50.072;7.036;2022-07-01T01:59:07;14.00;99.90
15426;DHT22;7812;50.072;7.036;2022-07-01T02:01:32;14.10;99.90
15426;DHT22;7812;50.072;7.036;2022-07-01T02:03:58;14.20;99.90
15426;DHT22;7812;50.072;7.036;2022-07-01T02:06:25;14.20;99.90
15426;DHT22;7812;50.072;7.036;2022-07-01T02:08:51;14.10;99.90
15426;DHT22;7812;50.072;7.036;2022-07-01T02:11:17;14.20;99.90
15426;DHT22;7812;50.072;7.036;2022-07-01T02:13:43;14.30;99.90
15426;DHT22;7812;50.072;7.036;2022-07-01T02:16:10;14.20;99.90
15426;DHT22;7812;50.072;7.036;2022-07-01T02:18:36;14.30;99.90
15426;DHT22;7812;50.072;7.036;2022-07-01T02:21:02;14.00;99.90
15426;DHT22;7812;50.072;7.036;2022-07-01T02:23:28;14.10;99.90
15426;DHT22;7812;50.072;7.036;2022-07-01T02:25:55;14.10;99.90
15426;DHT22;7812;50.072;7.036;2022-07-01T02:28:20;14.20;99.90
15426;DHT22;7812;50.072;7.036;2022-07-01T02:30:46;14.30;99.90
15426;DHT22;7812;50.072;7.036;2022-07-01T02:33:12;14.40;99.90
15426;DHT22;7812;50.072;7.036;2022-07-01T02:35:39;14.40;99.90
15426;DHT22;7812;50.072;7.036;2022-07-01T02:38:07;14.50;99.90
15426;DHT22;7812;50.072;7.036;2022-07-01T02:40:33;14.50;99.90
15426;DHT22;7812;50.072;7.036;2022-07-01T02:43:00;14.50;99.90
15426;DHT22;7812;50.072;7.036;2022-07-01T02:45:26;14.50;99.90
15426;DHT22;7812;50.072;7.036;2022-07-01T02:47:52;14.40;99.90
15426;DHT22;7812;50.072;7.036;2022-07-01T02:50:18;14.40;99.90
15426;DHT22;7812;50.072;7.036;2022-07-01T02:52:44;14.30;99.90
15426;DHT22;7812;50.072;7.036;2022-07-01T02:55:12;14.30;99.90
15426;DHT22;7812;50.072;7.036;2022-07-01T02:57:41;14.20;99.90
15426;DHT22;7812;50.072;7.036;2022-07-01T03:00:10;14.20;99.90
15426;DHT22;7812;50.072;7.036;2022-07-01T03:02:37;14.10;99.90
15426;DHT22;7812;50.072;7.036;2022-07-01T03:05:03;14.20;99.90
15426;DHT22;7812;50.072;7.036;2022-07-01T03:07:30;14.10;99.90
15426;DHT22;7812;50.072;7.036;2022-07-01T03:09:56;14.10;99.90
15426;DHT22;7812;50.072;7.036;2022-07-01T03:12:22;14.20;99.90
15426;DHT22;7812;50.072;7.036;2022-07-01T03:17:21;14.10;99.90
15426;DHT22;7812;50.072;7.036;2022-07-01T03:19:47;14.00;99.90
15426;DHT22;7812;50.072;7.036;2022-07-01T03:22:13;14.00;99.90
15426;DHT22;7812;50.072;7.036;2022-07-01T03:24:39;14.00;99.90
15426;DHT22;7812;50.072;7.036;2022-07-01T03:27:04;14.00;99.90
15426;DHT22;7812;50.072;7.036;2022-07-01T03:29:30;13.90;99.90
15426;DHT22;7812;50.072;7.036;2022-07-01T03:31:56;13.90;99.90
15426;DHT22;7812;50.072;7.036;2022-07-01T03:34:22;13.90;99.90
15426;DHT22;7812;50.072;7.036;2022-07-01T03:36:48;13.90;99.90
15426;DHT22;7812;50.072;7.036;2022-07-01T03:39:13;13.90;99.90
15426;DHT22;7812;50.072;7.036;2022-07-01T03:41:39;13.90;99.90
15426;DHT22;7812;50.072;7.036;2022-07-01T03:44:05;13.90;99.90
15426;DHT22;7812;50.072;7.036;2022-07-01T03:46:32;13.80;99.90
15426;DHT22;7812;50.072;7.036;2022-07-01T03:48:58;13.80;99.90
15426;DHT22;7812;50.072;7.036;2022-07-01T03:51:24;13.90;99.90
15426;DHT22;7812;50.072;7.036;2022-07-01T03:53:50;13.80;99.90
15426;DHT22;7812;50.072;7.036;2022-07-01T03:56:34;13.80;99.90
15426;DHT22;7812;50.072;7.036;2022-07-01T03:59:00;13.70;99.90
15426;DHT22;7812;50.072;7.036;2022-07-01T04:01:25;13.70;99.90
15426;DHT22;7812;50.072;7.036;2022-07-01T04:03:51;13.60;99.90
15426;DHT22;7812;50.072;7.036;2022-07-01T04:06:17;13.60;99.90
15426;DHT22;7812;50.072;7.036;2022-07-01T04:08:44;13.60;99.90
15426;DHT22;7812;50.072;7.036;2022-07-01T04:11:10;13.70;99.90
15426;DHT22;7812;50.072;7.036;2022-07-01T04:13:36;13.80;99.90
15426;DHT22;7812;50.072;7.036;2022-07-01T04:16:03;13.90;99.90
15426;DHT22;7812;50.072;7.036;2022-07-01T04:18:29;13.80;99.90
15426;DHT22;7812;50.072;7.036;2022-07-01T04:20:55;13.90;99.90
15426;DHT22;7812;50.072;7.036;2022-07-01T04:23:40;13.80;99.90
15426;DHT22;7812;50.072;7.036;2022-07-01T04:26:06;13.80;99.90
15426;DHT22;7812;50.072;7.036;2022-07-01T04:28:32;13.90;99.90
15426;DHT22;7812;50.072;7.036;2022-07-01T04:30:57;14.00;99.90
15426;DHT22;7812;50.072;7.036;2022-07-01T04:33:23;14.10;99.90
15426;DHT22;7812;50.072;7.036;2022-07-01T04:35:49;14.10;99.90
15426;DHT22;7812;50.072;7.036;2022-07-01T04:38:15;14.00;99.90
15426;DHT22;7812;50.072;7.036;2022-07-01T04:40:41;14.00;99.90
15426;DHT22;7812;50.072;7.036;2022-07-01T04:43:27;13.90;99.90
15426;DHT22;7812;50.072;7.036;2022-07-01T04:45:53;13.90;99.90
15426;DHT22;7812;50.072;7.036;2022-07-01T04:48:19;14.00;99.90
15426;DHT22;7812;50.072;7.036;2022-07-01T04:50:45;14.00;99.90
15426;DHT22;7812;50.072;7.036;2022-07-01T04:53:13;14.10;99.90
15426;DHT22;7812;50.072;7.036;2022-07-01T04:55:38;14.30;99.90
15426;DHT22;7812;50.072;7.036;2022-07-01T04:58:04;14.30;99.90
15426;DHT22;7812;50.072;7.036;2022-07-01T05:00:30;14.30;99.90
15426;DHT22;7812;50.072;7.036;2022-07-01T05:02:56;14.20;99.90
15426;DHT22;7812;50.072;7.036;2022-07-01T05:05:22;14.20;99.90
15426;DHT22;7812;50.072;7.036;2022-07-01T05:07:47;14.20;99.90
15426;DHT22;7812;50.072;7.036;2022-07-01T05:10:13;14.20;99.90
15426;DHT22;7812;50.072;7.036;2022-07-01T05:12:39;14.40;99.90
15426;DHT22;7812;50.072;7.036;2022-07-01T05:15:05;14.50;99.90
15426;DHT22;7812;50.072;7.036;2022-07-01T05:17:33;14.70;99.90
15426;DHT22;7812;50.072;7.036;2022-07-01T05:20:18;14.70;99.90
15426;DHT22;7812;50.072;7.036;2022-07-01T05:23:02;14.80;99.90
15426;DHT22;7812;50.072;7.036;2022-07-01T05:25:28;14.80;99.90
15426;DHT22;7812;50.072;7.036;2022-07-01T05:27:54;14.80;99.90
15426;DHT22;7812;50.072;7.036;2022-07-01T05:30:21;14.80;99.90
15426;DHT22;7812;50.072;7.036;2022-07-01T05:32:46;15.00;99.90
15426;DHT22;7812;50.072;7.036;2022-07-01T05:35:12;15.10;99.90
15426;DHT22;7812;50.072;7.036;2022-07-01T05:37:40;15.20;99.90
15426;DHT22;7812;50.072;7.036;2022-07-01T05:40:06;15.10;99.90
15426;DHT22;7812;50.072;7.036;2022-07-01T05:42:32;15.20;99.90
15426;DHT22;7812;50.072;7.036;2022-07-01T05:44:58;15.20;99.90
15426;DHT22;7812;50.072;7.036;2022-07-01T05:47:24;15.20;99.90
15426;DHT22;7812;50.072;7.036;2022-07-01T05:49:50;15.10;99.90
15426;DHT22;7812;50.072;7.036;2022-07-01T05:52:16;15.00;99.90
15426;DHT22;7812;50.072;7.036;2022-07-01T05:54:42;15.10;99.90
15426;DHT22;7812;50.072;7.036;2022-07-01T05:57:08;15.10;99.90
15426;DHT22;7812;50.072;7.036;2022-07-01T05:59:33;15.20;99.90
15426;DHT22;7812;50.072;7.036;2022-07-01T06:01:59;15.40;99.90
15426;DHT22;7812;50.072;7.036;2022-07-01T06:04:25;15.60;99.90
15426;DHT22;7812;50.072;7.036;2022-07-01T06:06:50;15.60;99.90
15426;DHT22;7812;50.072;7.036;2022-07-01T06:09:16;15.80;99.90
15426;DHT22;7812;50.072;7.036;2022-07-01T06:11:42;15.90;99.90
15426;DHT22;7812;50.072;7.036;2022-07-01T06:14:08;15.80;99.90
15426;DHT22;7812;50.072;7.036;2022-07-01T06:16:34;15.70;99.90
15426;DHT22;7812;50.072;7.036;2022-07-01T06:19:00;15.50;99.90
15426;DHT22;7812;50.072;7.036;2022-07-01T06:21:25;15.30;99.90
15426;DHT22;7812;50.072;7.036;2022-07-01T06:23:51;15.20;99.90
15426;DHT22;7812;50.072;7.036;2022-07-01T06:26:17;15.10;99.90
15426;DHT22;7812;50.072;7.036;2022-07-01T06:28:43;15.30;99.90
15426;DHT22;7812;50.072;7.036;2022-07-01T06:31:08;15.40;99.90
15426;DHT22;7812;50.072;7.036;2022-07-01T06:33:34;15.50;99.90
15426;DHT22;7812;50.072;7.036;2022-07-01T06:36:00;15.30;99.90
15426;DHT22;7812;50.072;7.036;2022-07-01T06:38:25;15.10;99.90
15426;DHT22;7812;50.072;7.036;2022-07-01T06:40:51;15.00;99.90
15426;DHT22;7812;50.072;7.036;2022-07-01T06:43:36;15.00;99.90
15426;DHT22;7812;50.072;7.036;2022-07-01T06:46:02;15.10;99.90
15426;DHT22;7812;50.072;7.036;2022-07-01T06:48:29;15.30;99.90
15426;DHT22;7812;50.072;7.036;2022-07-01T06:50:55;15.40;99.90
15426;DHT22;7812;50.072;7.036;2022-07-01T06:53:21;15.50;99.90
15426;DHT22;7812;50.072;7.036;2022-07-01T06:55:47;15.40;99.90
15426;DHT22;7812;50.072;7.036;2022-07-01T06:58:12;15.50;99.90
15426;DHT22;7812;50.072;7.036;2022-07-01T07:00:38;15.40;99.90
15426;DHT22;7812;50.072;7.036;2022-07-01T07:03:04;15.30;99.90
15426;DHT22;7812;50.072;7.036;2022-07-01T07:05:30;15.30;99.90
15426;DHT22;7812;50.072;7.036;2022-07-01T07:07:57;15.30;99.90
15426;DHT22;7812;50.072;7.036;2022-07-01T07:10:23;15.30;99.90
15426;DHT22;7812;50.072;7.036;2022-07-01T07:12:49;15.30;99.90
15426;DHT22;7812;50.072;7.036;2022-07-01T07:15:15;15.30;99.90
15426;DHT22;7812;50.072;7.036;2022-07-01T07:17:41;15.40;99.90
15426;DHT22;7812;50.072;7.036;2022-07-01T07:20:08;15.40;99.90
15426;DHT22;7812;50.072;7.036;2022-07-01T07:22:33;15.60;99.90
15426;DHT22;7812;50.072;7.036;2022-07-01T07:24:59;15.60;99.90
15426;DHT22;7812;50.072;7.036;2022-07-01T07:27:25;15.70;99.90
15426;DHT22;7812;50.072;7.036;2022-07-01T07:29:52;15.90;99.90
15426;DHT22;7812;50.072;7.036;2022-07-01T07:32:18;16.20;99.90
15426;DHT22;7812;50.072;7.036;2022-07-01T07:34:44;16.50;99.90
15426;DHT22;7812;50.072;7.036;2022-07-01T07:37:10;16.60;99.90
15426;DHT22;7812;50.072;7.036;2022-07-01T07:39:36;16.70;99.90
15426;DHT22;7812;50.072;7.036;2022-07-01T07:42:02;16.60;99.90
15426;DHT22;7812;50.072;7.036;2022-07-01T07:44:29;16.60;99.90
15426;DHT22;7812;50.072;7.036;2022-07-01T07:46:55;16.40;99.90
15426;DHT22;7812;50.072;7.036;2022-07-01T07:49:24;16.30;99.90
15426;DHT22;7812;50.072;7.036;2022-07-01T07:51:50;16.40;99.90
15426;DHT22;7812;50.072;7.036;2022-07-01T07:54:16;16.50;99.90
15426;DHT22;7812;50.072;7.036;2022-07-01T07:56:43;16.80;99.90
15426;DHT22;7812;50.072;7.036;2022-07-01T07:59:09;17.10;99.90
15426;DHT22;7812;50.072;7.036;2022-07-01T08:01:34;17.30;99.90
15426;DHT22;7812;50.072;7.036;2022-07-01T08:04:00;17.50;99.90
15426;DHT22;7812;50.072;7.036;2022-07-01T08:06:26;17.50;99.90
15426;DHT22;7812;50.072;7.036;2022-07-01T08:08:54;17.40;99.90
15426;DHT22;7812;50.072;7.036;2022-07-01T08:11:20;17.30;99.90
15426;DHT22;7812;50.072;7.036;2022-07-01T08:13:46;17.40;99.90
15426;DHT22;7812;50.072;7.036;2022-07-01T08:16:12;17.40;99.90
15426;DHT22;7812;50.072;7.036;2022-07-01T08:18:38;17.40;99.90
15426;DHT22;7812;50.072;7.036;2022-07-01T08:21:04;17.40;99.90
15426;DHT22;7812;50.072;7.036;2022-07-01T08:23:31;17.40;99.90
15426;DHT22;7812;50.072;7.036;2022-07-01T08:25:57;17.90;99.90
15426;DHT22;7812;50.072;7.036;2022-07-01T08:28:23;18.40;99.90
15426;DHT22;7812;50.072;7.036;2022-07-01T08:30:48;18.60;99.90
15426;DHT22;7812;50.072;7.036;2022-07-01T08:33:14;18.80;99.90
15426;DHT22;7812;50.072;7.036;2022-07-01T08:35:40;18.80;99.90
15426;DHT22;7812;50.072;7.036;2022-07-01T08:38:06;18.50;99.90
15426;DHT22;7812;50.072;7.036;2022-07-01T08:40:33;18.80;99.90
15426;DHT22;7812;50.072;7.036;2022-07-01T08:43:03;19.20;99.90
15426;DHT22;7812;50.072;7.036;2022-07-01T08:45:35;19.40;99.90
15426;DHT22;7812;50.072;7.036;2022-07-01T08:48:05;19.60;99.90
15426;DHT22;7812;50.072;7.036;2022-07-01T08:50:38;19.70;99.90
15426;DHT22;7812;50.072;7.036;2022-07-01T08:53:05;20.20;99.90
15426;DHT22;7812;50.072;7.036;2022-07-01T08:55:31;20.80;99.90
15426;DHT22;7812;50.072;7.036;2022-07-01T08:57:58;20.30;99.90
15426;DHT22;7812;50.072;7.036;2022-07-01T09:00:30;20.50;99.90
15426;DHT22;7812;50.072;7.036;2022-07-01T09:03:01;22.00;99.90
15426;DHT22;7812;50.072;7.036;2022-07-01T09:05:30;21.40;99.90
15426;DHT22;7812;50.072;7.036;2022-07-01T09:10:23;20.50;99.90
15426;DHT22;7812;50.072;7.036;2022-07-01T09:12:49;21.20;99.90
15426;DHT22;7812;50.072;7.036;2022-07-01T09:15:26;21.90;99.90
15426;DHT22;7812;50.072;7.036;2022-07-01T09:18:02;22.70;99.90
15426;DHT22;7812;50.072;7.036;2022-07-01T09:20:31;21.70;99.90
15426;DHT22;7812;50.072;7.036;2022-07-01T09:23:02;21.10;99.90
15426;DHT22;7812;50.072;7.036;2022-07-01T09:25:31;21.90;99.90
15426;DHT22;7812;50.072;7.036;2022-07-01T09:28:11;23.70;99.90
15426;DHT22;7812;50.072;7.036;2022-07-01T09:30:40;25.20;99.90
15426;DHT22;7812;50.072;7.036;2022-07-01T09:33:17;24.90;99.90
15426;DHT22;7812;50.072;7.036;2022-07-01T09:35:45;23.70;99.90
15426;DHT22;7812;50.072;7.036;2022-07-01T09:38:13;24.30;99.90
15426;DHT22;7812;50.072;7.036;2022-07-01T09:40:57;24.90;99.90
15426;DHT22;7812;50.072;7.036;2022-07-01T09:43:25;25.50;99.90
15426;DHT22;7812;50.072;7.036;2022-07-01T09:46:00;24.90;99.90
15426;DHT22;7812;50.072;7.036;2022-07-01T09:48:47;24.30;99.90
15426;DHT22;7812;50.072;7.036;2022-07-01T09:51:14;24.60;99.90
15426;DHT22;7812;50.072;7.036;2022-07-01T09:53:41;23.50;99.90
15426;DHT22;7812;50.072;7.036;2022-07-01T09:56:07;23.70;99.90
15426;DHT22;7812;50.072;7.036;2022-07-01T09:58:33;24.10;99.90
15426;DHT22;7812;50.072;7.036;2022-07-01T10:01:02;23.60;99.90
15426;DHT22;7812;50.072;7.036;2022-07-01T10:03:31;24.20;99.90
15426;DHT22;7812;50.072;7.036;2022-07-01T10:09:08;24.60;99.90
15426;DHT22;7812;50.072;7.036;2022-07-01T10:14:10;23.90;99.90
15426;DHT22;7812;50.072;7.036;2022-07-01T10:16:37;24.40;99.90
15426;DHT22;7812;50.072;7.036;2022-07-01T10:19:27;25.00;99.90
15426;DHT22;7812;50.072;7.036;2022-07-01T10:22:00;25.40;99.90
15426;DHT22;7812;50.072;7.036;2022-07-01T10:24:28;24.90;99.90
15426;DHT22;7812;50.072;7.036;2022-07-01T10:27:00;24.50;99.90
15426;DHT22;7812;50.072;7.036;2022-07-01T10:31:53;26.50;99.90
15426;DHT22;7812;50.072;7.036;2022-07-01T10:34:20;26.10;99.90
15426;DHT22;7812;50.072;7.036;2022-07-01T10:37:01;25.40;99.90
15426;DHT22;7812;50.072;7.036;2022-07-01T10:39:28;26.70;99.90
15426;DHT22;7812;50.072;7.036;2022-07-01T10:44:21;27.70;99.90
15426;DHT22;7812;50.072;7.036;2022-07-01T10:46:54;27.80;99.90
15426;DHT22;7812;50.072;7.036;2022-07-01T11:02:32;26.00;99.90
15426;DHT22;7812;50.072;7.036;2022-07-01T11:05:14;26.00;99.90
15426;DHT22;7812;50.072;7.036;2022-07-01T11:07:45;25.30;99.90
15426;DHT22;7812;50.072;7.036;2022-07-01T11:10:13;25.90;99.90
15426;DHT22;7812;50.072;7.036;2022-07-01T11:12:41;26.60;99.90
15426;DHT22;7812;50.072;7.036;2022-07-01T11:15:10;27.80;99.90
15426;DHT22;7812;50.072;7.036;2022-07-01T11:17:42;27.60;99.90
15426;DHT22;7812;50.072;7.036;2022-07-01T11:20:09;27.80;99.90
15426;DHT22;7812;50.072;7.036;2022-07-01T11:22:35;27.10;99.90
15426;DHT22;7812;50.072;7.036;2022-07-01T11:25:03;25.40;99.90
15426;DHT22;7812;50.072;7.036;2022-07-01T11:27:30;24.50;99.90
15426;DHT22;7812;50.072;7.036;2022-07-01T11:30:00;24.90;99.90
15426;DHT22;7812;50.072;7.036;2022-07-01T11:32:30;26.10;99.90
15426;DHT22;7812;50.072;7.036;2022-07-01T11:34:58;26.50;99.90
15426;DHT22;7812;50.072;7.036;2022-07-01T11:37:31;27.00;99.90
15426;DHT22;7812;50.072;7.036;2022-07-01T11:40:19;27.90;99.90
15426;DHT22;7812;50.072;7.036;2022-07-01T11:42:45;27.00;99.90
15426;DHT22;7812;50.072;7.036;2022-07-01T11:45:31;26.40;99.90
15426;DHT22;7812;50.072;7.036;2022-07-01T11:47:57;25.30;99.90
15426;DHT22;7812;50.072;7.036;2022-07-01T11:50:24;25.30;99.90
15426;DHT22;7812;50.072;7.036;2022-07-01T11:52:53;26.20;99.90
15426;DHT22;7812;50.072;7.036;2022-07-01T11:55:20;27.60;99.90
15426;DHT22;7812;50.072;7.036;2022-07-01T11:57:45;28.50;99.30
15426;DHT22;7812;50.072;7.036;2022-07-01T12:00:15;28.30;98.60
15426;DHT22;7812;50.072;7.036;2022-07-01T12:02:41;28.20;96.70
15426;DHT22;7812;50.072;7.036;2022-07-01T12:05:07;27.30;97.30
15426;DHT22;7812;50.072;7.036;2022-07-01T12:07:33;26.90;96.80
15426;DHT22;7812;50.072;7.036;2022-07-01T12:09:59;26.30;96.40
15426;DHT22;7812;50.072;7.036;2022-07-01T12:12:27;26.10;97.00
15426;DHT22;7812;50.072;7.036;2022-07-01T12:14:58;25.50;96.50
15426;DHT22;7812;50.072;7.036;2022-07-01T12:17:27;25.10;97.10
15426;DHT22;7812;50.072;7.036;2022-07-01T12:19:54;25.50;96.80
15426;DHT22;7812;50.072;7.036;2022-07-01T12:22:22;26.60;96.70
15426;DHT22;7812;50.072;7.036;2022-07-01T12:25:10;26.80;96.60
15426;DHT22;7812;50.072;7.036;2022-07-01T12:27:38;27.20;96.60
15426;DHT22;7812;50.072;7.036;2022-07-01T12:30:06;27.10;94.90
15426;DHT22;7812;50.072;7.036;2022-07-01T12:32:35;27.10;95.60
15426;DHT22;7812;50.072;7.036;2022-07-01T12:35:06;26.70;95.40
15426;DHT22;7812;50.072;7.036;2022-07-01T12:37:55;27.00;95.00
15426;DHT22;7812;50.072;7.036;2022-07-01T12:40:26;27.00;94.10
15426;DHT22;7812;50.072;7.036;2022-07-01T12:42:55;26.20;94.80
15426;DHT22;7812;50.072;7.036;2022-07-01T12:45:24;24.20;95.90
15426;DHT22;7812;50.072;7.036;2022-07-01T12:47:51;22.90;97.40
15426;DHT22;7812;50.072;7.036;2022-07-01T12:50:21;23.40;97.90
15426;DHT22;7812;50.072;7.036;2022-07-01T12:55:38;23.40;95.80
15426;DHT22;7812;50.072;7.036;2022-07-01T12:58:07;23.20;96.30
15426;DHT22;7812;50.072;7.036;2022-07-01T13:00:33;23.00;97.70
15426;DHT22;7812;50.072;7.036;2022-07-01T13:03:01;23.20;98.20
15426;DHT22;7812;50.072;7.036;2022-07-01T13:05:28;22.70;99.10
15426;DHT22;7812;50.072;7.036;2022-07-01T13:07:54;22.80;99.30
15426;DHT22;7812;50.072;7.036;2022-07-01T13:10:21;22.80;99.50
15426;DHT22;7812;50.072;7.036;2022-07-01T13:12:47;22.70;99.70
15426;DHT22;7812;50.072;7.036;2022-07-01T13:15:17;22.60;99.80
15426;DHT22;7812;50.072;7.036;2022-07-01T13:17:43;22.50;99.80
15426;DHT22;7812;50.072;7.036;2022-07-01T13:20:10;22.40;99.60
15426;DHT22;7812;50.072;7.036;2022-07-01T13:22:37;22.10;98.10
15426;DHT22;7812;50.072;7.036;2022-07-01T13:25:04;21.90;98.00
15426;DHT22;7812;50.072;7.036;2022-07-01T13:27:30;22.60;96.50
15426;DHT22;7812;50.072;7.036;2022-07-01T13:29:55;23.20;96.60
15426;DHT22;7812;50.072;7.036;2022-07-01T13:32:22;23.40;96.20
15426;DHT22;7812;50.072;7.036;2022-07-01T13:34:48;23.50;97.70
15426;DHT22;7812;50.072;7.036;2022-07-01T13:37:14;24.10;97.50
15426;DHT22;7812;50.072;7.036;2022-07-01T13:39:39;24.80;96.30
15426;DHT22;7812;50.072;7.036;2022-07-01T13:42:05;25.10;95.90
15426;DHT22;7812;50.072;7.036;2022-07-01T13:44:31;25.30;96.10
15426;DHT22;7812;50.072;7.036;2022-07-01T13:46:56;25.10;93.90
15426;DHT22;7812;50.072;7.036;2022-07-01T13:49:22;24.60;94.00
15426;DHT22;7812;50.072;7.036;2022-07-01T13:51:48;23.80;94.50
15426;DHT22;7812;50.072;7.036;2022-07-01T13:54:14;24.00;95.00
15426;DHT22;7812;50.072;7.036;2022-07-01T13:56:40;23.70;94.80
15426;DHT22;7812;50.072;7.036;2022-07-01T13:59:07;23.90;94.50
15426;DHT22;7812;50.072;7.036;2022-07-01T14:01:34;24.20;95.20
15426;DHT22;7812;50.072;7.036;2022-07-01T14:04:00;24.10;95.70
15426;DHT22;7812;50.072;7.036;2022-07-01T14:06:26;23.60;95.60
15426;DHT22;7812;50.072;7.036;2022-07-01T14:08:52;23.30;96.30
15426;DHT22;7812;50.072;7.036;2022-07-01T14:11:18;23.80;96.60
15426;DHT22;7812;50.072;7.036;2022-07-01T14:13:44;23.80;97.10
15426;DHT22;7812;50.072;7.036;2022-07-01T14:16:09;24.00;96.90
15426;DHT22;7812;50.072;7.036;2022-07-01T14:18:36;23.90;97.30
15426;DHT22;7812;50.072;7.036;2022-07-01T14:21:03;24.20;96.50
15426;DHT22;7812;50.072;7.036;2022-07-01T14:23:29;24.50;96.70
15426;DHT22;7812;50.072;7.036;2022-07-01T14:25:55;24.50;97.30
15426;DHT22;7812;50.072;7.036;2022-07-01T14:28:21;24.70;94.60
15426;DHT22;7812;50.072;7.036;2022-07-01T14:30:47;24.10;93.30
15426;DHT22;7812;50.072;7.036;2022-07-01T14:33:15;23.30;92.70
15426;DHT22;7812;50.072;7.036;2022-07-01T14:35:41;23.60;92.40
15426;DHT22;7812;50.072;7.036;2022-07-01T14:38:07;23.40;92.70
15426;DHT22;7812;50.072;7.036;2022-07-01T14:40:33;23.30;93.40
15426;DHT22;7812;50.072;7.036;2022-07-01T14:42:59;23.50;94.20
15426;DHT22;7812;50.072;7.036;2022-07-01T14:45:25;23.60;94.40
15426;DHT22;7812;50.072;7.036;2022-07-01T14:47:51;23.50;94.90
15426;DHT22;7812;50.072;7.036;2022-07-01T14:50:17;23.30;95.70
15426;DHT22;7812;50.072;7.036;2022-07-01T14:52:43;23.40;95.70
15426;DHT22;7812;50.072;7.036;2022-07-01T14:55:09;23.10;95.90
15426;DHT22;7812;50.072;7.036;2022-07-01T14:57:35;22.70;96.10
15426;DHT22;7812;50.072;7.036;2022-07-01T15:00:03;22.40;96.40
15426;DHT22;7812;50.072;7.036;2022-07-01T15:02:29;22.30;96.80
15426;DHT22;7812;50.072;7.036;2022-07-01T15:04:55;22.10;96.50
15426;DHT22;7812;50.072;7.036;2022-07-01T15:07:22;22.10;96.90
15426;DHT22;7812;50.072;7.036;2022-07-01T15:09:50;21.90;97.20
15426;DHT22;7812;50.072;7.036;2022-07-01T15:12:16;21.90;97.50
15426;DHT22;7812;50.072;7.036;2022-07-01T15:14:41;22.10;97.70
15426;DHT22;7812;50.072;7.036;2022-07-01T15:17:08;22.10;98.00
15426;DHT22;7812;50.072;7.036;2022-07-01T15:19:33;21.90;98.00
15426;DHT22;7812;50.072;7.036;2022-07-01T15:22:00;22.00;98.60
15426;DHT22;7812;50.072;7.036;2022-07-01T15:24:26;22.00;98.90
15426;DHT22;7812;50.072;7.036;2022-07-01T15:26:52;22.00;98.70
15426;DHT22;7812;50.072;7.036;2022-07-01T15:29:19;22.10;99.00
15426;DHT22;7812;50.072;7.036;2022-07-01T15:31:44;22.10;99.30
15426;DHT22;7812;50.072;7.036;2022-07-01T15:34:10;22.00;99.90
15426;DHT22;7812;50.072;7.036;2022-07-01T15:36:37;22.20;99.90
15426;DHT22;7812;50.072;7.036;2022-07-01T15:39:03;22.20;99.60
15426;DHT22;7812;50.072;7.036;2022-07-01T15:41:31;22.40;99.40
15426;DHT22;7812;50.072;7.036;2022-07-01T15:43:58;22.60;99.10
15426;DHT22;7812;50.072;7.036;2022-07-01T15:46:24;22.60;99.30
15426;DHT22;7812;50.072;7.036;2022-07-01T15:48:50;22.40;99.40
15426;DHT22;7812;50.072;7.036;2022-07-01T15:51:18;22.40;99.30
15426;DHT22;7812;50.072;7.036;2022-07-01T15:53:46;21.90;99.50
15426;DHT22;7812;50.072;7.036;2022-07-01T15:56:12;21.90;99.90
15426;DHT22;7812;50.072;7.036;2022-07-01T15:58:38;21.70;99.90
15426;DHT22;7812;50.072;7.036;2022-07-01T16:01:04;21.60;99.90
15426;DHT22;7812;50.072;7.036;2022-07-01T16:03:30;21.60;99.90
15426;DHT22;7812;50.072;7.036;2022-07-01T16:06:03;21.60;99.90
15426;DHT22;7812;50.072;7.036;2022-07-01T16:11:08;21.50;99.90
15426;DHT22;7812;50.072;7.036;2022-07-01T16:13:35;21.60;99.90
15426;DHT22;7812;50.072;7.036;2022-07-01T16:16:03;21.40;99.90
15426;DHT22;7812;50.072;7.036;2022-07-01T16:18:31;21.30;99.90
15426;DHT22;7812;50.072;7.036;2022-07-01T16:20:59;21.20;99.30